Quinn — WDJ4737 — position and weather

sailwx.info

Track history (hours):
 
Tides and Currents Weather Stations Pressure Air Temp Water Temp Dewpoint Dewpoint Depression Visibility Wind Speed Wind Dir Waves Ship Positions

Quinn

Owner: Round Bay, LLC, Washington, DC. More information available from US FCC via Universal Licensing System and Coast Guard Vessel Documentation Center.

Last reported at 2018-Jun-09 17:03 UTC. Time now 2018-Jun-25 09:38 UTC.
Position N 18°24' W 064°37'.
Warning: this ship's position is 15 days out of date.

Length 4 m.

Type: Sailing vessel. MMSI: 367780630.

Date/timePositionNaut miles runAvg speedWind from/ knotsBaromVisibWave heightAir tempDewpointWater temp
2018-Jun-09 17:03N 18°24' W 064°37'0 4.1
2018-Jun-09 17:00N 18°24' W 064°37'2 3.9
2018-Jun-09 16:26N 18°22' W 064°38'1 2.2
2018-Jun-09 15:57N 18°21' W 064°39'2 2.3
2018-Jun-09 14:59N 18°22' W 064°41'1 2.3
2018-Jun-09 14:30N 18°23' W 064°42'2 2.6
2018-Jun-09 13:49N 18°24' W 064°44'1 4.0
2018-Jun-09 13:30N 18°25' W 064°44'1 2.5
2018-Jun-09 13:01N 18°26' W 064°45'0 0.8
2018-Jun-09 12:27N 18°26' W 064°45'0 0.0
2018-Jun-09 11:57N 18°26' W 064°45'0 0.0
2018-Jun-09 11:15N 18°26' W 064°45'0 0.0
2018-Jun-09 10:57N 18°26' W 064°45'0 0.0
2018-Jun-09 10:27N 18°26' W 064°45'0 0.0
2018-Jun-09 09:57N 18°26' W 064°45'0 0.0
2018-Jun-09 09:27N 18°26' W 064°45'0 0.0
2018-Jun-09 08:57N 18°26' W 064°45'0 0.0
2018-Jun-09 03:39N 18°26' W 064°45'0 0.1
2018-Jun-09 03:27N 18°26' W 064°45'0 0.0
2018-Jun-09 02:57N 18°26' W 064°45'0 0.0
2018-Jun-09 02:27N 18°26' W 064°45'0 0.0
2018-Jun-09 01:57N 18°26' W 064°45'0 0.0
2018-Jun-09 01:27N 18°26' W 064°45'0 0.0
2018-Jun-09 00:57N 18°26' W 064°45'0 0.0
2018-Jun-09 00:27N 18°26' W 064°45'0 0.0
2018-Jun-08 23:57N 18°26' W 064°45'0 0.0
2018-Jun-08 23:27N 18°26' W 064°45'0 0.0
2018-Jun-08 22:51N 18°26' W 064°45'0 0.0
2018-Jun-08 22:27N 18°26' W 064°45'0 0.0
2018-Jun-08 21:57N 18°26' W 064°45'0 0.0
2018-Jun-08 21:27N 18°26' W 064°45'0 0.0
2018-Jun-08 20:51N 18°26' W 064°45'0 0.0
2018-Jun-08 20:27N 18°26' W 064°45'0 0.0
2018-Jun-08 19:51N 18°26' W 064°45'0 0.0
2018-Jun-08 19:27N 18°26' W 064°45'0 0.0
2018-Jun-08 18:57N 18°26' W 064°45'0 0.0
2018-Jun-08 18:21N 18°26' W 064°45'0 0.0
2018-Jun-08 17:57N 18°26' W 064°45'0 0.0
2018-Jun-08 17:27N 18°26' W 064°45'0 0.0
2018-Jun-08 16:57N 18°26' W 064°45'0 0.0
2018-Jun-08 16:27N 18°26' W 064°45'0 0.0
2018-Jun-08 15:54N 18°26' W 064°45'1 2.6
2018-Jun-08 15:29N 18°26' W 064°44'2 3.1
2018-Jun-08 14:56N 18°26' W 064°42'3 0.1
2018-Jun-07 20:22N 18°26' W 064°40'1 3.0
2018-Jun-07 20:00N 18°27' W 064°40'2 3.6
2018-Jun-07 19:30N 18°28' W 064°40'  
2018-Jun-04 10:08N 18°23' W 064°31'0 0.0
2018-Jun-04 09:50N 18°23' W 064°31'  
Track history (hours):
 
Tides and Currents Weather Stations Pressure Air Temp Water Temp Dewpoint Dewpoint Depression Visibility Wind Speed Wind Dir Waves Ship Positions

Quinn

Owner: Round Bay, LLC, Washington, DC. More information available from US FCC via Universal Licensing System and Coast Guard Vessel Documentation Center.

Last reported at 2018-Jun-09 17:03 UTC. Time now 2018-Jun-25 09:38 UTC.
Position N 18°24' W 064°37'.
Warning: this ship's position is 15 days out of date.

Length 4 m.

Type: Sailing vessel. MMSI: 367780630.

Date/timePositionNaut miles runAvg speedWind from/ knotsBaromVisibWave heightAir tempDewpointWater temp
2018-Jun-09 17:03N 18°24' W 064°37'0 4.1
2018-Jun-09 17:00N 18°24' W 064°37'2 3.9
2018-Jun-09 16:26N 18°22' W 064°38'1 2.2
2018-Jun-09 15:57N 18°21' W 064°39'2 2.3
2018-Jun-09 14:59N 18°22' W 064°41'1 2.3
2018-Jun-09 14:30N 18°23' W 064°42'2 2.6
2018-Jun-09 13:49N 18°24' W 064°44'1 4.0
2018-Jun-09 13:30N 18°25' W 064°44'1 2.5
2018-Jun-09 13:01N 18°26' W 064°45'0 0.8
2018-Jun-09 12:27N 18°26' W 064°45'0 0.0
2018-Jun-09 11:57N 18°26' W 064°45'0 0.0
2018-Jun-09 11:15N 18°26' W 064°45'0 0.0
2018-Jun-09 10:57N 18°26' W 064°45'0 0.0
2018-Jun-09 10:27N 18°26' W 064°45'0 0.0
2018-Jun-09 09:57N 18°26' W 064°45'0 0.0
2018-Jun-09 09:27N 18°26' W 064°45'0 0.0
2018-Jun-09 08:57N 18°26' W 064°45'0 0.0
2018-Jun-09 03:39N 18°26' W 064°45'0 0.1
2018-Jun-09 03:27N 18°26' W 064°45'0 0.0
2018-Jun-09 02:57N 18°26' W 064°45'0 0.0
2018-Jun-09 02:27N 18°26' W 064°45'0 0.0
2018-Jun-09 01:57N 18°26' W 064°45'0 0.0
2018-Jun-09 01:27N 18°26' W 064°45'0 0.0
2018-Jun-09 00:57N 18°26' W 064°45'0 0.0
2018-Jun-09 00:27N 18°26' W 064°45'0 0.0
2018-Jun-08 23:57N 18°26' W 064°45'0 0.0
2018-Jun-08 23:27N 18°26' W 064°45'0 0.0
2018-Jun-08 22:51N 18°26' W 064°45'0 0.0
2018-Jun-08 22:27N 18°26' W 064°45'0 0.0
2018-Jun-08 21:57N 18°26' W 064°45'0 0.0
2018-Jun-08 21:27N 18°26' W 064°45'0 0.0
2018-Jun-08 20:51N 18°26' W 064°45'0 0.0
2018-Jun-08 20:27N 18°26' W 064°45'0 0.0
2018-Jun-08 19:51N 18°26' W 064°45'0 0.0
2018-Jun-08 19:27N 18°26' W 064°45'0 0.0
2018-Jun-08 18:57N 18°26' W 064°45'0 0.0
2018-Jun-08 18:21N 18°26' W 064°45'0 0.0
2018-Jun-08 17:57N 18°26' W 064°45'0 0.0
2018-Jun-08 17:27N 18°26' W 064°45'0 0.0
2018-Jun-08 16:57N 18°26' W 064°45'0 0.0
2018-Jun-08 16:27N 18°26' W 064°45'0 0.0
2018-Jun-08 15:54N 18°26' W 064°45'1 2.6
2018-Jun-08 15:29N 18°26' W 064°44'2 3.1
2018-Jun-08 14:56N 18°26' W 064°42'3 0.1
2018-Jun-07 20:22N 18°26' W 064°40'1 3.0
2018-Jun-07 20:00N 18°27' W 064°40'2 3.6
2018-Jun-07 19:30N 18°28' W 064°40'  
2018-Jun-04 10:08N 18°23' W 064°31'0 0.0
2018-Jun-04 09:50N 18°23' W 064°31'  

Dump ship's entire track history